createdAt,value
2018-07-06T00:01:00.409Z,20.63
2018-07-06T00:03:42.258Z,20.71
2018-07-06T00:06:24.268Z,20.66
2018-07-06T00:09:05.959Z,20.53
2018-07-06T00:11:47.746Z,20.59
2018-07-06T00:14:29.854Z,20.60
2018-07-06T00:17:11.382Z,20.41
2018-07-06T00:19:53.485Z,20.36
2018-07-06T00:22:35.221Z,20.34
2018-07-06T00:25:17.118Z,20.31
2018-07-06T00:27:58.511Z,20.28
2018-07-06T00:30:40.473Z,20.38
2018-07-06T00:33:22.400Z,20.23
2018-07-06T00:36:04.576Z,20.16
2018-07-06T00:38:45.987Z,19.66
2018-07-06T00:41:28.016Z,19.76
2018-07-06T00:44:10.092Z,19.81
2018-07-06T00:46:51.877Z,19.83
2018-07-06T00:49:33.987Z,19.96
2018-07-06T00:52:15.886Z,20.12
2018-07-06T00:54:57.913Z,19.77
2018-07-06T00:57:44.604Z,19.57
2018-07-06T01:00:26.278Z,19.73
2018-07-06T01:03:07.870Z,19.63
2018-07-06T01:05:49.637Z,19.73
2018-07-06T01:08:31.913Z,19.68
2018-07-06T01:11:13.564Z,19.60
2018-07-06T01:13:54.811Z,19.67
2018-07-06T01:16:36.530Z,19.88
2018-07-06T01:19:18.234Z,19.73
2018-07-06T01:21:59.819Z,19.61
2018-07-06T01:24:41.627Z,19.48
2018-07-06T01:27:23.383Z,19.38
2018-07-06T01:30:05.444Z,19.26
2018-07-06T01:32:47.365Z,19.11
2018-07-06T01:35:28.978Z,19.26
2018-07-06T01:38:10.678Z,19.33
2018-07-06T01:40:52.605Z,19.39
2018-07-06T01:43:34.063Z,19.36
2018-07-06T01:46:15.787Z,19.31
2018-07-06T01:48:57.583Z,19.34
2018-07-06T01:51:39.596Z,19.28
2018-07-06T01:54:21.786Z,19.29
2018-07-06T01:57:03.142Z,19.17
2018-07-06T01:59:45.250Z,19.18
2018-07-06T02:02:27.148Z,19.11
2018-07-06T02:05:09.287Z,19.08
2018-07-06T02:07:51.324Z,19.02
2018-07-06T02:10:32.694Z,19.11
2018-07-06T02:13:14.630Z,19.04
2018-07-06T02:15:56.476Z,18.92
2018-07-06T02:18:39.132Z,18.91
2018-07-06T02:21:20.736Z,18.92
2018-07-06T02:24:02.099Z,18.88
2018-07-06T02:26:44.575Z,18.72
2018-07-06T02:29:26.667Z,18.76
2018-07-06T02:32:08.643Z,18.71
2018-07-06T02:34:50.828Z,18.61
2018-07-06T02:37:32.608Z,18.70
2018-07-06T02:40:14.489Z,18.75
2018-07-06T02:42:56.821Z,18.81
2018-07-06T02:45:38.737Z,18.42
2018-07-06T02:48:20.710Z,18.56
2018-07-06T02:51:02.595Z,18.33
2018-07-06T02:53:44.385Z,18.27
2018-07-06T02:56:26.020Z,18.22
2018-07-06T02:59:06.973Z,18.44
2018-07-06T03:01:48.723Z,18.40
2018-07-06T03:04:30.648Z,18.41
2018-07-06T03:07:12.680Z,18.42
2018-07-06T03:09:54.493Z,18.51
2018-07-06T03:12:36.651Z,18.55
2018-07-06T03:15:18.826Z,18.39
2018-07-06T03:18:00.508Z,18.33
2018-07-06T03:20:41.993Z,18.23
2018-07-06T03:23:24.004Z,18.33
2018-07-06T03:26:04.676Z,18.38
2018-07-06T03:28:45.772Z,18.58
2018-07-06T03:31:26.855Z,18.64
2018-07-06T03:34:07.844Z,18.69
2018-07-06T03:36:48.907Z,18.45
2018-07-06T03:39:30.106Z,18.60
2018-07-06T03:42:11.059Z,18.48
2018-07-06T03:44:52.340Z,18.48
2018-07-06T03:47:33.314Z,18.40
2018-07-06T03:50:14.560Z,18.40
2018-07-06T03:52:55.456Z,18.52
2018-07-06T03:55:37.566Z,18.45
2018-07-06T03:58:18.452Z,18.67
2018-07-06T04:00:59.572Z,19.03
2018-07-06T04:03:43.167Z,18.96
2018-07-06T04:06:24.435Z,18.99
2018-07-06T04:09:05.514Z,19.08
2018-07-06T04:11:47.612Z,19.24
2018-07-06T04:14:28.913Z,19.37
2018-07-06T04:17:10.200Z,19.52
2018-07-06T04:19:51.376Z,19.70
2018-07-06T04:22:32.435Z,20.03
2018-07-06T04:25:13.625Z,20.26
2018-07-06T04:27:54.690Z,20.25
2018-07-06T04:30:35.774Z,20.53
2018-07-06T04:33:16.858Z,20.75
2018-07-06T04:35:58.006Z,20.82
2018-07-06T04:38:39.485Z,20.72
2018-07-06T04:41:20.358Z,20.92
2018-07-06T04:44:01.461Z,21.03
2018-07-06T04:46:42.535Z,21.08
2018-07-06T04:49:23.492Z,21.39
2018-07-06T04:52:05.694Z,21.55
2018-07-06T04:54:46.690Z,21.72
2018-07-06T04:57:27.875Z,21.98
2018-07-06T05:00:09.153Z,22.01
2018-07-06T05:02:50.339Z,22.20
2018-07-06T05:05:31.430Z,22.47
2018-07-06T05:08:12.254Z,22.62
2018-07-06T05:10:53.253Z,22.66
2018-07-06T05:13:34.153Z,22.65
2018-07-06T05:16:15.493Z,22.75
2018-07-06T05:18:56.594Z,22.99
2018-07-06T05:21:37.497Z,23.37
2018-07-06T05:24:18.755Z,23.37
2018-07-06T05:26:59.721Z,23.17
2018-07-06T05:29:41.213Z,23.15
2018-07-06T05:32:22.402Z,23.28
2018-07-06T05:35:03.377Z,23.53
2018-07-06T05:37:44.349Z,23.74
2018-07-06T05:40:25.289Z,23.73
2018-07-06T05:43:06.267Z,24.01
2018-07-06T05:45:47.376Z,24.40
2018-07-06T05:48:28.304Z,24.56
2018-07-06T05:51:09.394Z,24.68
2018-07-06T05:53:50.635Z,24.98
2018-07-06T05:56:31.574Z,24.92
2018-07-06T05:59:12.814Z,25.25
2018-07-06T06:01:53.832Z,25.43
2018-07-06T06:04:34.914Z,25.42
2018-07-06T06:07:15.783Z,25.50
2018-07-06T06:09:45.945Z,25.79
2018-07-06T06:12:16.407Z,25.77
2018-07-06T06:14:46.927Z,25.56
2018-07-06T06:17:17.968Z,25.42
2018-07-06T06:19:48.249Z,25.42
2018-07-06T06:22:18.560Z,25.51
2018-07-06T06:24:48.927Z,25.50
2018-07-06T06:27:19.246Z,25.84
2018-07-06T06:29:50.353Z,25.92
2018-07-06T06:32:20.855Z,25.97
2018-07-06T06:34:52.322Z,25.69
2018-07-06T06:37:22.659Z,25.81
2018-07-06T06:39:53.576Z,25.98
2018-07-06T06:42:23.885Z,25.99
2018-07-06T06:44:54.418Z,26.18
2018-07-06T06:47:25.149Z,26.14
2018-07-06T06:49:55.425Z,26.44
2018-07-06T06:52:26.127Z,26.41
2018-07-06T06:54:57.277Z,26.87
2018-07-06T06:57:27.460Z,27.32
2018-07-06T06:59:57.972Z,27.65
2018-07-06T07:02:28.410Z,27.71
2018-07-06T07:04:58.796Z,27.74
2018-07-06T07:07:29.036Z,27.85
2018-07-06T07:09:59.407Z,28.21
2018-07-06T07:12:29.791Z,28.17
2018-07-06T07:15:00.130Z,28.38
2018-07-06T07:17:30.604Z,28.95
2018-07-06T07:20:00.945Z,29.39
2018-07-06T07:22:31.610Z,29.54
2018-07-06T07:25:02.038Z,29.51
2018-07-06T07:27:32.266Z,29.41
2018-07-06T07:30:02.659Z,28.74
2018-07-06T07:32:33.107Z,28.85
2018-07-06T07:35:03.671Z,29.10
2018-07-06T07:37:34.079Z,29.64
2018-07-06T07:40:04.743Z,30.09
2018-07-06T07:42:36.069Z,30.61
2018-07-06T07:45:06.701Z,30.75
2018-07-06T07:47:37.653Z,31.19
2018-07-06T07:50:08.165Z,30.78
2018-07-06T07:52:49.216Z,30.65
2018-07-06T07:55:19.526Z,30.56
2018-07-06T07:57:49.771Z,30.65
2018-07-06T08:00:20.389Z,30.76
2018-07-06T08:02:50.828Z,31.11
2018-07-06T08:05:21.247Z,31.27
2018-07-06T08:07:51.483Z,32.03
2018-07-06T08:10:21.857Z,32.36
2018-07-06T08:12:52.170Z,32.64
2018-07-06T08:15:22.818Z,32.79
2018-07-06T08:17:53.183Z,32.73
2018-07-06T08:20:23.655Z,32.95
2018-07-06T08:22:53.829Z,32.70
2018-07-06T08:25:24.103Z,32.29
2018-07-06T08:27:54.233Z,32.58
2018-07-06T08:30:24.729Z,32.85
2018-07-06T08:32:55.007Z,33.19
2018-07-06T08:35:36.064Z,32.90
2018-07-06T08:38:07.394Z,33.09
2018-07-06T08:40:38.362Z,33.40
2018-07-06T08:43:08.877Z,33.30
2018-07-06T08:45:40.282Z,33.03
2018-07-06T08:48:10.557Z,33.46
2018-07-06T08:50:41.133Z,33.44
2018-07-06T08:53:11.720Z,33.59
2018-07-06T08:55:42.237Z,33.45
2018-07-06T08:58:12.439Z,33.79
2018-07-06T09:00:43.281Z,33.36
2018-07-06T09:03:13.785Z,33.28
2018-07-06T09:05:44.751Z,33.28
2018-07-06T09:08:14.984Z,33.41
2018-07-06T09:10:46.656Z,33.54
2018-07-06T09:13:18.063Z,33.84
2018-07-06T09:15:48.338Z,33.98
2018-07-06T09:18:18.758Z,33.83
2018-07-06T09:20:49.127Z,33.80
2018-07-06T09:23:19.397Z,33.28
2018-07-06T09:25:50.015Z,33.00
2018-07-06T09:28:20.083Z,33.27
2018-07-06T09:30:50.488Z,33.52
2018-07-06T09:33:21.140Z,33.59
2018-07-06T09:35:51.966Z,33.93
2018-07-06T09:38:23.482Z,34.09
2018-07-06T09:40:53.931Z,34.39
2018-07-06T09:43:24.277Z,34.61
2018-07-06T09:45:54.668Z,34.57
2018-07-06T09:48:24.849Z,34.80
2018-07-06T09:50:55.356Z,35.32
2018-07-06T09:53:26.628Z,35.37
2018-07-06T09:55:57.354Z,34.28
2018-07-06T09:58:27.692Z,32.98
2018-07-06T10:00:59.040Z,33.16
2018-07-06T10:03:30.024Z,33.54
2018-07-06T10:06:01.046Z,33.96
2018-07-06T10:08:31.319Z,34.06
2018-07-06T10:11:01.899Z,34.20
2018-07-06T10:13:32.373Z,34.41
2018-07-06T10:16:02.839Z,34.51
2018-07-06T10:18:33.276Z,35.18
2018-07-06T10:21:03.849Z,35.02
2018-07-06T10:23:34.055Z,34.92
2018-07-06T10:26:04.432Z,35.16
2018-07-06T10:30:51.888Z,34.53
2018-07-06T10:33:22.299Z,34.32
2018-07-06T10:35:52.650Z,35.04
2018-07-06T10:38:22.963Z,35.69
2018-07-06T10:40:53.305Z,36.28
2018-07-06T10:43:23.606Z,36.41
2018-07-06T10:45:54.049Z,36.80
2018-07-06T10:48:24.962Z,36.55
2018-07-06T10:50:55.371Z,36.48
2018-07-06T10:53:25.921Z,36.49
2018-07-06T10:55:56.386Z,36.05
2018-07-06T10:58:26.694Z,36.24
2018-07-06T11:00:56.928Z,36.65
2018-07-06T11:03:27.436Z,36.70
2018-07-06T11:05:58.011Z,36.26
2018-07-06T11:08:28.338Z,36.06
2018-07-06T11:10:58.768Z,36.48
2018-07-06T11:13:29.130Z,36.84
2018-07-06T11:15:59.542Z,37.07
2018-07-06T11:18:29.911Z,36.95
2018-07-06T11:21:00.373Z,37.41
2018-07-06T11:23:30.824Z,37.50
2018-07-06T11:26:00.969Z,37.80
2018-07-06T11:28:31.249Z,38.57
2018-07-06T11:31:01.435Z,38.53
2018-07-06T11:33:31.749Z,38.46
2018-07-06T11:36:02.016Z,38.27
2018-07-06T11:38:32.408Z,38.66
2018-07-06T11:41:02.861Z,38.45
2018-07-06T11:43:33.333Z,38.24
2018-07-06T11:46:04.067Z,38.79
2018-07-06T11:48:34.198Z,38.72
2018-07-06T11:51:04.696Z,38.28
2018-07-06T11:53:35.049Z,38.32
2018-07-06T11:56:05.386Z,38.41
2018-07-06T11:58:35.513Z,38.64
2018-07-06T12:01:05.908Z,37.82
2018-07-06T12:03:36.472Z,37.86
2018-07-06T12:06:06.673Z,38.06
2018-07-06T12:08:37.006Z,38.33
2018-07-06T12:11:07.185Z,37.10
2018-07-06T12:13:37.583Z,37.83
2018-07-06T12:16:07.927Z,38.73
2018-07-06T12:18:38.321Z,38.80
2018-07-06T12:21:08.826Z,39.56
2018-07-06T12:23:39.169Z,39.71
2018-07-06T12:26:09.421Z,39.61
2018-07-06T12:28:39.519Z,39.27
2018-07-06T12:31:10.358Z,38.82
2018-07-06T12:33:40.763Z,38.73
2018-07-06T12:36:11.187Z,38.78
2018-07-06T12:38:42.314Z,38.73
2018-07-06T12:41:12.586Z,38.88
2018-07-06T12:43:42.990Z,38.10
2018-07-06T12:46:13.084Z,38.37
2018-07-06T12:48:43.460Z,39.05
2018-07-06T12:51:14.085Z,38.86
2018-07-06T12:53:44.446Z,39.02
2018-07-06T12:56:14.959Z,38.50
2018-07-06T12:58:45.241Z,38.50
2018-07-06T13:01:15.442Z,38.06
2018-07-06T13:03:46.160Z,37.73
2018-07-06T13:06:16.484Z,37.82
2018-07-06T13:08:46.790Z,37.37
2018-07-06T13:11:17.175Z,37.24
2018-07-06T13:13:47.369Z,36.82
2018-07-06T13:16:17.593Z,37.37
2018-07-06T13:18:48.890Z,37.13
2018-07-06T13:21:19.129Z,37.12
2018-07-06T13:23:50.797Z,37.08
2018-07-06T13:26:20.813Z,37.54
2018-07-06T13:28:51.057Z,37.55
2018-07-06T13:31:21.049Z,37.49
2018-07-06T13:33:51.287Z,37.17
2018-07-06T13:36:21.729Z,37.30
2018-07-06T13:38:51.954Z,37.51
2018-07-06T13:41:22.454Z,37.69
2018-07-06T13:43:54.335Z,38.02
2018-07-06T13:46:24.481Z,37.90
2018-07-06T13:48:54.738Z,37.89
2018-07-06T13:51:24.994Z,37.66
2018-07-06T13:53:55.501Z,37.45
2018-07-06T13:56:25.841Z,37.27
2018-07-06T13:58:55.882Z,36.82
2018-07-06T14:01:26.190Z,37.43
2018-07-06T14:03:56.713Z,37.44
2018-07-06T14:06:26.966Z,37.62
2018-07-06T14:08:57.065Z,37.43
2018-07-06T14:11:27.239Z,37.52
2018-07-06T14:13:58.027Z,37.90
2018-07-06T14:16:28.411Z,37.64
2018-07-06T14:18:58.755Z,37.68
2018-07-06T14:21:29.151Z,38.00
2018-07-06T14:24:00.011Z,38.32
2018-07-06T14:26:30.303Z,37.72
2018-07-06T14:29:00.673Z,37.90
2018-07-06T14:31:31.071Z,38.28
2018-07-06T14:34:02.088Z,38.42
2018-07-06T14:36:32.141Z,38.45
2018-07-06T14:39:02.429Z,38.67
2018-07-06T14:41:32.710Z,38.69
2018-07-06T14:44:03.109Z,38.28
2018-07-06T14:46:33.532Z,38.00
2018-07-06T14:49:04.008Z,37.76
2018-07-06T14:51:34.154Z,37.49
2018-07-06T14:54:04.284Z,37.47
2018-07-06T14:56:34.580Z,37.20
2018-07-06T14:59:04.757Z,37.12
2018-07-06T15:01:34.930Z,37.02
2018-07-06T15:04:05.202Z,36.77
2018-07-06T15:06:35.399Z,36.50
2018-07-06T15:09:06.281Z,36.49
2018-07-06T15:11:36.312Z,36.85
2018-07-06T15:14:06.652Z,36.84
2018-07-06T15:16:36.896Z,36.91
2018-07-06T15:19:07.243Z,36.78
2018-07-06T15:21:37.556Z,36.90
2018-07-06T15:24:07.797Z,36.70
2018-07-06T15:26:38.242Z,36.42
2018-07-06T15:29:08.495Z,36.45
2018-07-06T15:31:38.875Z,36.37
2018-07-06T15:34:09.595Z,36.65
2018-07-06T15:36:39.952Z,36.81
2018-07-06T15:39:10.157Z,36.72
2018-07-06T15:41:40.634Z,36.47
2018-07-06T15:44:11.029Z,36.26
2018-07-06T15:46:41.387Z,36.03
2018-07-06T15:49:11.340Z,35.84
2018-07-06T15:51:41.644Z,35.68
2018-07-06T15:54:11.778Z,35.77
2018-07-06T15:56:42.125Z,35.67
2018-07-06T15:59:12.272Z,35.49
2018-07-06T16:01:42.509Z,35.76
2018-07-06T16:04:12.842Z,36.06
2018-07-06T16:06:43.091Z,36.21
2018-07-06T16:09:13.539Z,36.06
2018-07-06T16:11:43.751Z,35.80
2018-07-06T16:14:14.212Z,35.90
2018-07-06T16:16:44.526Z,35.41
2018-07-06T16:19:14.825Z,35.05
2018-07-06T16:21:44.875Z,34.87
2018-07-06T16:24:15.154Z,34.49
2018-07-06T16:26:45.298Z,34.67
2018-07-06T16:29:15.560Z,34.69
2018-07-06T16:31:45.740Z,34.99
2018-07-06T16:34:16.055Z,35.48
2018-07-06T16:36:46.312Z,35.67
2018-07-06T16:39:16.514Z,35.56
2018-07-06T16:41:46.944Z,35.31
2018-07-06T16:44:17.540Z,35.04
2018-07-06T16:46:47.635Z,35.09
2018-07-06T16:49:17.867Z,35.03
2018-07-06T16:51:48.221Z,34.73
2018-07-06T16:54:18.389Z,34.54
2018-07-06T16:56:48.727Z,34.25
2018-07-06T16:59:19.068Z,33.87
2018-07-06T17:01:49.235Z,33.60
2018-07-06T17:04:20.096Z,33.26
2018-07-06T17:06:50.332Z,33.24
2018-07-06T17:09:20.493Z,32.95
2018-07-06T17:11:50.736Z,32.65
2018-07-06T17:14:21.106Z,32.53
2018-07-06T17:16:51.336Z,32.00
2018-07-06T17:19:21.514Z,31.87
2018-07-06T17:21:51.936Z,32.00
2018-07-06T17:24:22.056Z,31.87
2018-07-06T17:26:52.280Z,31.38
2018-07-06T17:29:22.434Z,30.84
2018-07-06T17:31:52.620Z,30.00
2018-07-06T17:34:23.017Z,29.82
2018-07-06T17:36:53.237Z,29.67
2018-07-06T17:39:23.650Z,29.56
2018-07-06T17:41:53.843Z,29.45
2018-07-06T17:44:24.088Z,29.21
2018-07-06T17:46:54.391Z,29.03
2018-07-06T17:49:24.597Z,28.47
2018-07-06T17:51:55.033Z,28.47
2018-07-06T17:54:25.317Z,28.56
2018-07-06T17:56:55.588Z,28.26
2018-07-06T17:59:25.631Z,28.50
2018-07-06T18:01:56.123Z,28.53
2018-07-06T18:04:26.345Z,28.40
2018-07-06T18:06:56.461Z,28.36
2018-07-06T18:09:26.583Z,28.26
2018-07-06T18:11:57.773Z,28.02
2018-07-06T18:14:28.183Z,27.98
2018-07-06T18:16:58.403Z,27.94
2018-07-06T18:19:28.529Z,28.01
2018-07-06T18:21:59.041Z,27.93
2018-07-06T18:24:29.333Z,27.66
2018-07-06T18:26:59.529Z,27.57
2018-07-06T18:29:29.857Z,27.49
2018-07-06T18:32:00.032Z,27.46
2018-07-06T18:34:30.262Z,27.39
2018-07-06T18:37:00.583Z,27.42
2018-07-06T18:39:30.871Z,27.32
2018-07-06T18:42:00.950Z,27.31
2018-07-06T18:44:31.129Z,27.23
2018-07-06T18:47:01.428Z,27.17
2018-07-06T18:49:31.656Z,27.06
2018-07-06T18:52:02.069Z,27.05
2018-07-06T18:54:32.226Z,26.92
2018-07-06T18:57:02.590Z,26.87
2018-07-06T18:59:32.767Z,26.48
2018-07-06T19:02:02.870Z,26.54
2018-07-06T19:04:33.286Z,26.45
2018-07-06T19:07:03.536Z,26.28
2018-07-06T19:09:33.641Z,26.31
2018-07-06T19:12:03.812Z,26.17
2018-07-06T19:14:34.167Z,26.16
2018-07-06T19:17:04.279Z,26.13
2018-07-06T19:19:34.540Z,26.16
2018-07-06T19:22:04.825Z,25.98
2018-07-06T19:24:35.169Z,26.03
2018-07-06T19:27:05.425Z,25.99
2018-07-06T19:29:35.513Z,25.94
2018-07-06T19:32:05.808Z,25.90
2018-07-06T19:34:35.992Z,25.81
2018-07-06T19:37:06.120Z,25.56
2018-07-06T19:39:36.722Z,25.25
2018-07-06T19:42:07.048Z,25.08
2018-07-06T19:44:37.400Z,25.02
2018-07-06T19:47:07.423Z,24.89
2018-07-06T19:49:37.676Z,24.86
2018-07-06T19:52:08.016Z,24.78
2018-07-06T19:54:39.132Z,24.60
2018-07-06T19:57:09.513Z,24.81
2018-07-06T19:59:39.679Z,24.96
2018-07-06T20:02:10.358Z,24.87
2018-07-06T20:04:40.969Z,25.14
2018-07-06T20:07:11.948Z,24.67
2018-07-06T20:09:43.328Z,24.51
2018-07-06T20:12:14.456Z,24.23
2018-07-06T20:14:45.421Z,24.10
2018-07-06T20:17:16.874Z,24.30
2018-07-06T20:19:48.405Z,24.45
2018-07-06T20:22:18.776Z,24.30
2018-07-06T20:24:50.418Z,24.13
2018-07-06T20:27:21.780Z,24.04
2018-07-06T20:29:52.957Z,24.27
2018-07-06T20:32:23.668Z,24.19
2018-07-06T20:34:54.966Z,24.20
2018-07-06T20:37:25.891Z,24.04
2018-07-06T20:39:57.330Z,24.09
2018-07-06T20:42:28.370Z,24.10
2018-07-06T20:44:59.350Z,23.99
2018-07-06T20:47:31.009Z,23.91
2018-07-06T20:50:02.321Z,23.76
2018-07-06T20:52:34.008Z,23.66
2018-07-06T20:55:05.379Z,23.56
2018-07-06T20:57:36.766Z,23.37
2018-07-06T21:00:07.875Z,23.17
2018-07-06T21:02:39.207Z,23.40
2018-07-06T21:05:10.366Z,23.63
2018-07-06T21:07:41.848Z,23.35
2018-07-06T21:10:12.328Z,23.28
2018-07-06T21:12:43.949Z,23.41
2018-07-06T21:15:15.132Z,23.60
2018-07-06T21:17:45.733Z,23.58
2018-07-06T21:20:16.955Z,23.46
2018-07-06T21:22:47.644Z,23.41
2018-07-06T21:25:19.191Z,23.37
2018-07-06T21:27:50.528Z,23.35
2018-07-06T21:30:21.903Z,23.57
2018-07-06T21:32:53.450Z,23.54
2018-07-06T21:35:24.017Z,23.55
2018-07-06T21:37:55.140Z,23.59
2018-07-06T21:40:26.275Z,23.67
2018-07-06T21:42:58.500Z,23.53
2018-07-06T21:45:30.082Z,23.39
2018-07-06T21:48:00.319Z,23.14
2018-07-06T21:50:31.308Z,22.62
2018-07-06T21:53:02.663Z,22.31
2018-07-06T21:55:33.341Z,22.52
2018-07-06T21:58:04.611Z,22.76
2018-07-06T22:00:38.985Z,22.86
2018-07-06T22:03:11.093Z,23.00
2018-07-06T22:05:42.250Z,22.96
2018-07-06T22:08:13.392Z,23.02
2018-07-06T22:10:44.745Z,22.98
2018-07-06T22:13:16.056Z,23.02
2018-07-06T22:15:48.091Z,22.54
2018-07-06T22:18:20.174Z,22.63
2018-07-06T22:20:51.405Z,22.63
2018-07-06T22:23:21.967Z,22.69
2018-07-06T22:25:54.143Z,22.63
2018-07-06T22:28:24.964Z,22.57
2018-07-06T22:30:56.017Z,22.20
2018-07-06T22:33:26.704Z,22.40
2018-07-06T22:35:57.314Z,22.06
2018-07-06T22:38:28.938Z,22.05
2018-07-06T22:40:59.931Z,22.39
2018-07-06T22:43:32.147Z,22.31
2018-07-06T22:46:03.424Z,22.09
2018-07-06T22:48:34.425Z,22.21
2018-07-06T22:51:05.589Z,22.27
2018-07-06T22:53:37.088Z,22.35
2018-07-06T22:56:08.358Z,22.46
2018-07-06T22:58:39.223Z,22.16
2018-07-06T23:01:10.349Z,21.97
2018-07-06T23:03:41.728Z,21.89
2018-07-06T23:06:12.034Z,22.02
2018-07-06T23:08:43.367Z,22.06
2018-07-06T23:11:14.952Z,22.15
2018-07-06T23:13:46.316Z,22.10
2018-07-06T23:16:17.504Z,21.92
2018-07-06T23:18:48.103Z,21.93
2018-07-06T23:21:19.640Z,21.99
2018-07-06T23:23:49.727Z,21.99
2018-07-06T23:26:20.357Z,21.98
2018-07-06T23:28:51.830Z,21.88
2018-07-06T23:31:22.767Z,21.83
2018-07-06T23:33:54.131Z,21.73
2018-07-06T23:36:25.804Z,21.60
2018-07-06T23:38:57.115Z,21.43
2018-07-06T23:41:28.490Z,21.47
2018-07-06T23:43:59.572Z,21.48
2018-07-06T23:46:31.211Z,21.46
2018-07-06T23:49:02.894Z,21.39
2018-07-06T23:51:34.003Z,21.35
2018-07-06T23:54:05.332Z,21.26
2018-07-06T23:56:36.435Z,21.21
2018-07-06T23:59:08.046Z,21.24
